Aeroporto :
LOGIN :

Iscrizione | Disclaimer

   EN    FR    IT 

 










Sommario :    VFR   VFR Marginale   IFR   IFR Intensivo   IFR Molto Intensivo
Visibilità : 
Base nubi : 
>= 8 km
>= 3000ft
5 / 8 km
1000 / 3000 ft
1500m / 5 km
500 / 1000 ft
800 / 1500m
200 / 500 ft
< 800m
< 200 ft
Simboli :   Temporali  Nebbia  Neve Forte  Precipitazioni Forti  Vento > 20 kt
SIGMETs :   Varie  Temporali  Ghiacco  Turbolenza  Onda orograficha  Ceneri Vulcaniche







- Altitudine del aeroporto : 15 ft
- Codice IATA : FCO


LIRF - Roma Leonardo da Vinci Fiumicino

ULTIMO METAR :
  • 260320Z 02002KT 9000 -RA SCT025 SCT035 15/14 Q1012 NOSIG

METARs OBSOLETI :
  • 260250Z 04004KT 9999 FEW020 SCT030 15/15 Q1012 NOSIG
  • 260220Z 06002KT 9999 FEW007 BKN027 15/14 Q1012 NOSIG
  • 260150Z 13004KT 9999 -RA FEW007 SCT030 15/14 Q1013 NOSIG
  • 260120Z 13003KT 100V160 9999 -RA FEW015 SCT050 15/14 Q1013 NOSIG
  • 260050Z 13005KT 9999 -RA FEW040 SCT055 15/14 Q1013 NOSIG

TAF TAF LIRF
Valido dal 26 a 00 ore il 27 a 06 ore UTC


252300Z 2600/2706 VRB05KT 7000 RA SCT018 BKN040
BECMG 2610/2612 05010KT
TEMPO 2703/2706 SHRA
Nessun NOTAM noto per questo aeroporto.



MetMap, La meteo Aeronautica in un colpo d'occhio ! - Copyright ORBIFLY Dicembre 2007 - Disclaimer

ORBIFLY MET'MAP TEAM :

Programmazione e sviluppo : Alexandra Zaïnal
Concezione e sviluppo : Baudouin d'Aumeries
Co-Programmazione e sviluppo : Marc-Olivier Méhu
Supporto tecnico e logistico : Manuel Goepfert
Aiuto per la traduzione : Arnaldo La Scala

Contatto : metmap@orbifly.com




FONTI E CREDITI :

   NOAA